sensor_id;sensor_type;location;lat;lon;timestamp;P1;durP1;ratioP1;P2;durP2;ratioP2
64816;SDS011;69411;45.656;11.740;2023-09-07T00:00:43;6.53;;;3.60;;
64816;SDS011;69411;45.656;11.740;2023-09-07T00:03:09;5.90;;;3.47;;
64816;SDS011;69411;45.656;11.740;2023-09-07T00:05:35;4.72;;;3.38;;
64816;SDS011;69411;45.656;11.740;2023-09-07T00:08:01;5.82;;;3.65;;
64816;SDS011;69411;45.656;11.740;2023-09-07T00:10:26;6.18;;;3.42;;
64816;SDS011;69411;45.656;11.740;2023-09-07T00:12:52;5.85;;;3.60;;
64816;SDS011;69411;45.656;11.740;2023-09-07T00:15:18;4.47;;;3.55;;
64816;SDS011;69411;45.656;11.740;2023-09-07T00:17:45;6.57;;;3.70;;
64816;SDS011;69411;45.656;11.740;2023-09-07T00:20:11;6.25;;;3.97;;
64816;SDS011;69411;45.656;11.740;2023-09-07T00:22:39;4.65;;;3.28;;
64816;SDS011;69411;45.656;11.740;2023-09-07T00:25:06;6.35;;;3.70;;
64816;SDS011;69411;45.656;11.740;2023-09-07T00:27:32;5.40;;;3.47;;
64816;SDS011;69411;45.656;11.740;2023-09-07T00:29:59;4.82;;;3.60;;
64816;SDS011;69411;45.656;11.740;2023-09-07T00:32:25;4.22;;;3.30;;
64816;SDS011;69411;45.656;11.740;2023-09-07T00:34:51;5.85;;;3.67;;
64816;SDS011;69411;45.656;11.740;2023-09-07T00:37:17;7.63;;;4.00;;
64816;SDS011;69411;45.656;11.740;2023-09-07T00:39:43;8.00;;;3.55;;
64816;SDS011;69411;45.656;11.740;2023-09-07T00:42:09;10.85;;;4.25;;
64816;SDS011;69411;45.656;11.740;2023-09-07T00:44:35;4.78;;;3.58;;
64816;SDS011;69411;45.656;11.740;2023-09-07T00:47:01;6.78;;;3.53;;
64816;SDS011;69411;45.656;11.740;2023-09-07T00:49:27;7.63;;;3.65;;
64816;SDS011;69411;45.656;11.740;2023-09-07T00:51:53;5.55;;;3.47;;
64816;SDS011;69411;45.656;11.740;2023-09-07T00:54:20;5.38;;;3.53;;
64816;SDS011;69411;45.656;11.740;2023-09-07T00:56:46;5.57;;;3.50;;
64816;SDS011;69411;45.656;11.740;2023-09-07T00:59:12;5.82;;;3.30;;
64816;SDS011;69411;45.656;11.740;2023-09-07T01:01:39;4.63;;;3.30;;
64816;SDS011;69411;45.656;11.740;2023-09-07T01:04:05;4.00;;;3.00;;
64816;SDS011;69411;45.656;11.740;2023-09-07T01:06:39;4.10;;;3.20;;
64816;SDS011;69411;45.656;11.740;2023-09-07T01:09:13;4.75;;;3.20;;
64816;SDS011;69411;45.656;11.740;2023-09-07T01:11:44;5.75;;;3.00;;
64816;SDS011;69411;45.656;11.740;2023-09-07T01:14:10;5.88;;;3.22;;
64816;SDS011;69411;45.656;11.740;2023-09-07T01:16:36;6.18;;;3.38;;
64816;SDS011;69411;45.656;11.740;2023-09-07T01:19:05;4.22;;;3.03;;
64816;SDS011;69411;45.656;11.740;2023-09-07T01:21:35;4.40;;;3.22;;
64816;SDS011;69411;45.656;11.740;2023-09-07T01:24:08;4.00;;;3.20;;
64816;SDS011;69411;45.656;11.740;2023-09-07T01:29:08;3.33;;;2.65;;
64816;SDS011;69411;45.656;11.740;2023-09-07T01:31:37;4.10;;;2.97;;
64816;SDS011;69411;45.656;11.740;2023-09-07T01:34:04;4.18;;;3.28;;
64816;SDS011;69411;45.656;11.740;2023-09-07T01:36:31;4.43;;;3.10;;
64816;SDS011;69411;45.656;11.740;2023-09-07T01:38:58;4.30;;;3.17;;
64816;SDS011;69411;45.656;11.740;2023-09-07T01:41:23;7.10;;;3.75;;
64816;SDS011;69411;45.656;11.740;2023-09-07T01:43:50;4.28;;;2.80;;
64816;SDS011;69411;45.656;11.740;2023-09-07T01:46:16;3.25;;;2.85;;
64816;SDS011;69411;45.656;11.740;2023-09-07T01:48:42;5.72;;;3.10;;
64816;SDS011;69411;45.656;11.740;2023-09-07T01:51:08;4.07;;;3.47;;
64816;SDS011;69411;45.656;11.740;2023-09-07T01:53:34;5.75;;;3.30;;
64816;SDS011;69411;45.656;11.740;2023-09-07T01:56:00;4.25;;;3.10;;
64816;SDS011;69411;45.656;11.740;2023-09-07T01:58:26;5.47;;;3.25;;
64816;SDS011;69411;45.656;11.740;2023-09-07T02:00:52;5.30;;;3.78;;
64816;SDS011;69411;45.656;11.740;2023-09-07T02:03:22;4.40;;;3.33;;
64816;SDS011;69411;45.656;11.740;2023-09-07T02:05:48;3.97;;;3.33;;
64816;SDS011;69411;45.656;11.740;2023-09-07T02:08:14;5.25;;;3.20;;
64816;SDS011;69411;45.656;11.740;2023-09-07T02:10:40;4.43;;;3.22;;
64816;SDS011;69411;45.656;11.740;2023-09-07T02:13:06;5.93;;;3.47;;
64816;SDS011;69411;45.656;11.740;2023-09-07T02:15:32;6.55;;;3.90;;
64816;SDS011;69411;45.656;11.740;2023-09-07T02:17:58;6.15;;;3.67;;
64816;SDS011;69411;45.656;11.740;2023-09-07T02:20:24;4.97;;;3.22;;
64816;SDS011;69411;45.656;11.740;2023-09-07T02:22:50;6.57;;;2.88;;
64816;SDS011;69411;45.656;11.740;2023-09-07T02:25:16;5.03;;;2.90;;
64816;SDS011;69411;45.656;11.740;2023-09-07T02:27:42;4.07;;;2.92;;
64816;SDS011;69411;45.656;11.740;2023-09-07T02:30:08;4.07;;;3.08;;
64816;SDS011;69411;45.656;11.740;2023-09-07T02:32:34;4.40;;;3.35;;
64816;SDS011;69411;45.656;11.740;2023-09-07T02:35:00;5.82;;;3.60;;
64816;SDS011;69411;45.656;11.740;2023-09-07T02:37:26;4.35;;;3.30;;
64816;SDS011;69411;45.656;11.740;2023-09-07T02:39:52;3.80;;;2.88;;
64816;SDS011;69411;45.656;11.740;2023-09-07T02:42:18;5.93;;;3.35;;
64816;SDS011;69411;45.656;11.740;2023-09-07T02:44:44;5.90;;;3.40;;
64816;SDS011;69411;45.656;11.740;2023-09-07T02:47:10;5.28;;;3.20;;
64816;SDS011;69411;45.656;11.740;2023-09-07T02:49:36;7.32;;;3.60;;
64816;SDS011;69411;45.656;11.740;2023-09-07T02:52:02;5.07;;;3.30;;
64816;SDS011;69411;45.656;11.740;2023-09-07T02:54:28;5.93;;;3.47;;
64816;SDS011;69411;45.656;11.740;2023-09-07T02:56:54;5.78;;;3.20;;
64816;SDS011;69411;45.656;11.740;2023-09-07T02:59:20;4.00;;;3.03;;
64816;SDS011;69411;45.656;11.740;2023-09-07T03:01:46;5.00;;;3.00;;
64816;SDS011;69411;45.656;11.740;2023-09-07T03:04:12;4.20;;;3.00;;
64816;SDS011;69411;45.656;11.740;2023-09-07T03:06:38;6.95;;;3.40;;
64816;SDS011;69411;45.656;11.740;2023-09-07T03:09:04;3.15;;;2.85;;
64816;SDS011;69411;45.656;11.740;2023-09-07T03:11:34;3.55;;;2.83;;
64816;SDS011;69411;45.656;11.740;2023-09-07T03:14:00;4.78;;;3.40;;
64816;SDS011;69411;45.656;11.740;2023-09-07T03:16:26;4.50;;;3.30;;
64816;SDS011;69411;45.656;11.740;2023-09-07T03:18:52;5.00;;;3.40;;
64816;SDS011;69411;45.656;11.740;2023-09-07T03:21:18;5.03;;;3.05;;
64816;SDS011;69411;45.656;11.740;2023-09-07T03:23:44;3.58;;;2.95;;
64816;SDS011;69411;45.656;11.740;2023-09-07T03:26:10;4.38;;;3.00;;
64816;SDS011;69411;45.656;11.740;2023-09-07T03:28:36;4.85;;;3.05;;
64816;SDS011;69411;45.656;11.740;2023-09-07T03:31:02;3.72;;;2.80;;
64816;SDS011;69411;45.656;11.740;2023-09-07T03:33:30;4.20;;;3.22;;
64816;SDS011;69411;45.656;11.740;2023-09-07T03:35:56;5.13;;;3.10;;
64816;SDS011;69411;45.656;11.740;2023-09-07T03:38:24;6.25;;;3.53;;
64816;SDS011;69411;45.656;11.740;2023-09-07T03:40:50;6.25;;;3.33;;
64816;SDS011;69411;45.656;11.740;2023-09-07T03:43:16;6.15;;;3.17;;
64816;SDS011;69411;45.656;11.740;2023-09-07T03:45:42;3.55;;;3.13;;
64816;SDS011;69411;45.656;11.740;2023-09-07T03:48:08;6.30;;;3.30;;
64816;SDS011;69411;45.656;11.740;2023-09-07T03:50:35;5.05;;;3.50;;
64816;SDS011;69411;45.656;11.740;2023-09-07T03:53:01;7.60;;;3.72;;
64816;SDS011;69411;45.656;11.740;2023-09-07T03:55:27;5.45;;;3.38;;
64816;SDS011;69411;45.656;11.740;2023-09-07T03:57:53;6.13;;;3.65;;
64816;SDS011;69411;45.656;11.740;2023-09-07T04:00:19;6.15;;;3.80;;
64816;SDS011;69411;45.656;11.740;2023-09-07T04:02:45;4.35;;;3.35;;
64816;SDS011;69411;45.656;11.740;2023-09-07T04:05:11;5.75;;;3.78;;
64816;SDS011;69411;45.656;11.740;2023-09-07T04:07:37;4.22;;;3.20;;
64816;SDS011;69411;45.656;11.740;2023-09-07T04:10:04;5.38;;;3.38;;
64816;SDS011;69411;45.656;11.740;2023-09-07T04:12:30;6.38;;;3.65;;
64816;SDS011;69411;45.656;11.740;2023-09-07T04:15:00;6.57;;;3.45;;
64816;SDS011;69411;45.656;11.740;2023-09-07T04:17:29;5.22;;;3.10;;
64816;SDS011;69411;45.656;11.740;2023-09-07T04:19:55;4.25;;;3.22;;
64816;SDS011;69411;45.656;11.740;2023-09-07T04:22:21;4.35;;;3.28;;
64816;SDS011;69411;45.656;11.740;2023-09-07T04:24:47;3.70;;;3.08;;
64816;SDS011;69411;45.656;11.740;2023-09-07T04:27:14;5.70;;;4.03;;
64816;SDS011;69411;45.656;11.740;2023-09-07T04:29:40;5.68;;;3.40;;
64816;SDS011;69411;45.656;11.740;2023-09-07T04:32:06;4.53;;;3.40;;
64816;SDS011;69411;45.656;11.740;2023-09-07T04:34:32;8.18;;;3.65;;
64816;SDS011;69411;45.656;11.740;2023-09-07T04:36:58;7.00;;;4.20;;
64816;SDS011;69411;45.656;11.740;2023-09-07T04:39:24;5.03;;;3.60;;
64816;SDS011;69411;45.656;11.740;2023-09-07T04:41:50;7.63;;;3.65;;
64816;SDS011;69411;45.656;11.740;2023-09-07T04:44:17;6.13;;;3.92;;
64816;SDS011;69411;45.656;11.740;2023-09-07T04:46:43;4.35;;;3.30;;
64816;SDS011;69411;45.656;11.740;2023-09-07T04:49:09;6.20;;;3.53;;
64816;SDS011;69411;45.656;11.740;2023-09-07T04:51:35;5.50;;;3.15;;
64816;SDS011;69411;45.656;11.740;2023-09-07T04:54:01;4.03;;;3.17;;
64816;SDS011;69411;45.656;11.740;2023-09-07T04:56:27;5.60;;;3.50;;
64816;SDS011;69411;45.656;11.740;2023-09-07T04:58:54;5.50;;;3.50;;
64816;SDS011;69411;45.656;11.740;2023-09-07T05:01:20;4.47;;;3.40;;
64816;SDS011;69411;45.656;11.740;2023-09-07T05:03:46;4.80;;;3.47;;
64816;SDS011;69411;45.656;11.740;2023-09-07T05:06:12;7.47;;;3.72;;
64816;SDS011;69411;45.656;11.740;2023-09-07T05:08:39;5.82;;;3.92;;
64816;SDS011;69411;45.656;11.740;2023-09-07T05:11:05;5.43;;;3.67;;
64816;SDS011;69411;45.656;11.740;2023-09-07T05:13:31;5.32;;;3.40;;
64816;SDS011;69411;45.656;11.740;2023-09-07T05:15:58;5.22;;;3.47;;
64816;SDS011;69411;45.656;11.740;2023-09-07T05:18:30;6.00;;;3.80;;
64816;SDS011;69411;45.656;11.740;2023-09-07T05:20:55;5.43;;;3.95;;
64816;SDS011;69411;45.656;11.740;2023-09-07T05:23:22;4.60;;;3.50;;
64816;SDS011;69411;45.656;11.740;2023-09-07T05:25:50;6.03;;;3.75;;
64816;SDS011;69411;45.656;11.740;2023-09-07T05:28:18;5.32;;;3.60;;
64816;SDS011;69411;45.656;11.740;2023-09-07T05:30:44;5.80;;;3.20;;
64816;SDS011;69411;45.656;11.740;2023-09-07T05:33:11;4.22;;;3.15;;
64816;SDS011;69411;45.656;11.740;2023-09-07T05:35:39;4.70;;;3.30;;
64816;SDS011;69411;45.656;11.740;2023-09-07T05:38:07;6.65;;;3.75;;
64816;SDS011;69411;45.656;11.740;2023-09-07T05:40:37;7.50;;;4.10;;
64816;SDS011;69411;45.656;11.740;2023-09-07T05:43:05;5.10;;;3.42;;
64816;SDS011;69411;45.656;11.740;2023-09-07T05:45:33;8.57;;;4.35;;
64816;SDS011;69411;45.656;11.740;2023-09-07T05:48:07;5.13;;;3.50;;
64816;SDS011;69411;45.656;11.740;2023-09-07T05:50:34;5.03;;;3.90;;
64816;SDS011;69411;45.656;11.740;2023-09-07T05:53:02;4.15;;;3.40;;
64816;SDS011;69411;45.656;11.740;2023-09-07T05:55:29;4.75;;;3.53;;
64816;SDS011;69411;45.656;11.740;2023-09-07T05:57:55;4.50;;;3.05;;
64816;SDS011;69411;45.656;11.740;2023-09-07T06:00:23;5.30;;;3.28;;
64816;SDS011;69411;45.656;11.740;2023-09-07T06:02:50;4.28;;;3.28;;
64816;SDS011;69411;45.656;11.740;2023-09-07T06:05:16;5.63;;;3.22;;
64816;SDS011;69411;45.656;11.740;2023-09-07T06:07:43;3.63;;;2.97;;
64816;SDS011;69411;45.656;11.740;2023-09-07T06:10:09;5.20;;;3.10;;
64816;SDS011;69411;45.656;11.740;2023-09-07T06:12:35;7.05;;;2.92;;
64816;SDS011;69411;45.656;11.740;2023-09-07T06:15:01;5.95;;;3.97;;
64816;SDS011;69411;45.656;11.740;2023-09-07T06:17:28;6.60;;;4.10;;
64816;SDS011;69411;45.656;11.740;2023-09-07T06:19:56;6.75;;;3.88;;
64816;SDS011;69411;45.656;11.740;2023-09-07T06:22:28;5.00;;;3.55;;
64816;SDS011;69411;45.656;11.740;2023-09-07T06:24:54;4.13;;;3.20;;
64816;SDS011;69411;45.656;11.740;2023-09-07T06:27:21;4.85;;;3.22;;
64816;SDS011;69411;45.656;11.740;2023-09-07T06:29:48;4.63;;;2.75;;
64816;SDS011;69411;45.656;11.740;2023-09-07T06:32:14;5.65;;;3.35;;
64816;SDS011;69411;45.656;11.740;2023-09-07T06:34:40;3.92;;;3.10;;
64816;SDS011;69411;45.656;11.740;2023-09-07T06:37:06;5.03;;;3.10;;
64816;SDS011;69411;45.656;11.740;2023-09-07T06:39:32;6.35;;;2.72;;
64816;SDS011;69411;45.656;11.740;2023-09-07T06:41:58;4.85;;;3.00;;
64816;SDS011;69411;45.656;11.740;2023-09-07T06:44:24;6.90;;;3.00;;
64816;SDS011;69411;45.656;11.740;2023-09-07T06:46:50;4.40;;;3.20;;
64816;SDS011;69411;45.656;11.740;2023-09-07T06:49:16;5.38;;;4.18;;
64816;SDS011;69411;45.656;11.740;2023-09-07T06:51:42;5.40;;;3.25;;
64816;SDS011;69411;45.656;11.740;2023-09-07T06:54:08;4.90;;;3.17;;
64816;SDS011;69411;45.656;11.740;2023-09-07T06:56:34;3.63;;;2.80;;
64816;SDS011;69411;45.656;11.740;2023-09-07T06:59:01;3.88;;;2.83;;
64816;SDS011;69411;45.656;11.740;2023-09-07T07:01:27;4.10;;;2.90;;
64816;SDS011;69411;45.656;11.740;2023-09-07T07:03:55;5.95;;;3.10;;
64816;SDS011;69411;45.656;11.740;2023-09-07T07:06:23;3.60;;;2.80;;
64816;SDS011;69411;45.656;11.740;2023-09-07T07:08:51;5.20;;;3.00;;
64816;SDS011;69411;45.656;11.740;2023-09-07T07:11:17;2.90;;;2.60;;
64816;SDS011;69411;45.656;11.740;2023-09-07T07:13:43;4.35;;;3.00;;
64816;SDS011;69411;45.656;11.740;2023-09-07T07:16:09;3.25;;;2.60;;
64816;SDS011;69411;45.656;11.740;2023-09-07T07:18:34;3.55;;;2.75;;
64816;SDS011;69411;45.656;11.740;2023-09-07T07:21:00;4.53;;;2.80;;
64816;SDS011;69411;45.656;11.740;2023-09-07T07:23:26;3.92;;;2.65;;
64816;SDS011;69411;45.656;11.740;2023-09-07T07:25:52;4.07;;;2.80;;
64816;SDS011;69411;45.656;11.740;2023-09-07T07:28:18;3.58;;;2.90;;
64816;SDS011;69411;45.656;11.740;2023-09-07T07:30:43;5.68;;;2.90;;
64816;SDS011;69411;45.656;11.740;2023-09-07T07:33:09;4.05;;;2.85;;
64816;SDS011;69411;45.656;11.740;2023-09-07T07:35:37;5.18;;;2.78;;
64816;SDS011;69411;45.656;11.740;2023-09-07T07:38:03;6.43;;;3.17;;
64816;SDS011;69411;45.656;11.740;2023-09-07T07:40:31;6.68;;;2.78;;
64816;SDS011;69411;45.656;11.740;2023-09-07T07:42:57;4.43;;;3.00;;
64816;SDS011;69411;45.656;11.740;2023-09-07T07:45:24;6.45;;;2.97;;
64816;SDS011;69411;45.656;11.740;2023-09-07T07:47:50;4.07;;;2.97;;
64816;SDS011;69411;45.656;11.740;2023-09-07T07:50:17;4.85;;;3.00;;
64816;SDS011;69411;45.656;11.740;2023-09-07T07:52:46;7.15;;;3.40;;
64816;SDS011;69411;45.656;11.740;2023-09-07T07:55:12;5.97;;;3.28;;
64816;SDS011;69411;45.656;11.740;2023-09-07T07:57:38;6.97;;;3.20;;
64816;SDS011;69411;45.656;11.740;2023-09-07T08:00:06;5.45;;;3.25;;
64816;SDS011;69411;45.656;11.740;2023-09-07T08:02:32;3.83;;;3.35;;
64816;SDS011;69411;45.656;11.740;2023-09-07T08:04:58;5.47;;;3.00;;
64816;SDS011;69411;45.656;11.740;2023-09-07T08:07:24;5.35;;;3.00;;
64816;SDS011;69411;45.656;11.740;2023-09-07T08:09:51;4.93;;;3.22;;
64816;SDS011;69411;45.656;11.740;2023-09-07T08:12:18;4.55;;;3.33;;
64816;SDS011;69411;45.656;11.740;2023-09-07T08:14:46;5.32;;;3.72;;
64816;SDS011;69411;45.656;11.740;2023-09-07T08:17:12;3.53;;;3.17;;
64816;SDS011;69411;45.656;11.740;2023-09-07T08:19:37;5.00;;;3.35;;
64816;SDS011;69411;45.656;11.740;2023-09-07T08:22:04;4.32;;;3.70;;
64816;SDS011;69411;45.656;11.740;2023-09-07T08:24:31;5.22;;;3.60;;
64816;SDS011;69411;45.656;11.740;2023-09-07T08:26:57;4.80;;;3.65;;
64816;SDS011;69411;45.656;11.740;2023-09-07T08:29:25;4.50;;;3.63;;
64816;SDS011;69411;45.656;11.740;2023-09-07T08:31:55;4.20;;;3.80;;
64816;SDS011;69411;45.656;11.740;2023-09-07T08:34:22;5.28;;;3.70;;
64816;SDS011;69411;45.656;11.740;2023-09-07T08:36:48;5.65;;;3.70;;
64816;SDS011;69411;45.656;11.740;2023-09-07T08:39:20;8.02;;;3.75;;
64816;SDS011;69411;45.656;11.740;2023-09-07T08:41:46;6.20;;;4.10;;
64816;SDS011;69411;45.656;11.740;2023-09-07T08:44:16;24.50;;;19.45;;
64816;SDS011;69411;45.656;11.740;2023-09-07T08:46:42;68.45;;;55.10;;
64816;SDS011;69411;45.656;11.740;2023-09-07T08:49:12;40.15;;;36.05;;
64816;SDS011;69411;45.656;11.740;2023-09-07T08:51:38;7.30;;;5.05;;
64816;SDS011;69411;45.656;11.740;2023-09-07T08:54:10;5.50;;;3.63;;
64816;SDS011;69411;45.656;11.740;2023-09-07T08:56:37;5.13;;;3.58;;
64816;SDS011;69411;45.656;11.740;2023-09-07T08:59:03;5.63;;;3.85;;
64816;SDS011;69411;45.656;11.740;2023-09-07T09:01:32;5.13;;;3.70;;
64816;SDS011;69411;45.656;11.740;2023-09-07T09:03:59;6.78;;;3.53;;
64816;SDS011;69411;45.656;11.740;2023-09-07T09:06:25;4.88;;;3.58;;
64816;SDS011;69411;45.656;11.740;2023-09-07T09:08:54;5.40;;;3.83;;
64816;SDS011;69411;45.656;11.740;2023-09-07T09:11:22;4.75;;;3.63;;
64816;SDS011;69411;45.656;11.740;2023-09-07T09:13:49;5.63;;;3.65;;
64816;SDS011;69411;45.656;11.740;2023-09-07T09:16:17;13.18;;;3.90;;
64816;SDS011;69411;45.656;11.740;2023-09-07T09:18:49;5.57;;;3.60;;
64816;SDS011;69411;45.656;11.740;2023-09-07T09:21:20;6.07;;;3.97;;
64816;SDS011;69411;45.656;11.740;2023-09-07T09:23:51;10.38;;;3.60;;
64816;SDS011;69411;45.656;11.740;2023-09-07T09:26:18;4.55;;;3.70;;
64816;SDS011;69411;45.656;11.740;2023-09-07T09:28:44;5.97;;;3.97;;
64816;SDS011;69411;45.656;11.740;2023-09-07T09:31:12;10.45;;;3.95;;
64816;SDS011;69411;45.656;11.740;2023-09-07T09:33:39;7.55;;;4.00;;
64816;SDS011;69411;45.656;11.740;2023-09-07T09:38:38;6.18;;;3.97;;
64816;SDS011;69411;45.656;11.740;2023-09-07T09:41:06;5.47;;;3.97;;
64816;SDS011;69411;45.656;11.740;2023-09-07T09:43:35;5.63;;;3.72;;
64816;SDS011;69411;45.656;11.740;2023-09-07T09:46:00;5.13;;;3.90;;
64816;SDS011;69411;45.656;11.740;2023-09-07T09:48:28;5.72;;;3.97;;
64816;SDS011;69411;45.656;11.740;2023-09-07T09:50:57;7.63;;;4.22;;
64816;SDS011;69411;45.656;11.740;2023-09-07T09:53:30;5.60;;;3.63;;
64816;SDS011;69411;45.656;11.740;2023-09-07T09:55:57;5.30;;;3.67;;
64816;SDS011;69411;45.656;11.740;2023-09-07T09:58:22;4.55;;;3.40;;
64816;SDS011;69411;45.656;11.740;2023-09-07T10:00:49;4.80;;;3.83;;
64816;SDS011;69411;45.656;11.740;2023-09-07T10:03:28;5.82;;;3.85;;
64816;SDS011;69411;45.656;11.740;2023-09-07T10:06:17;4.60;;;3.33;;
64816;SDS011;69411;45.656;11.740;2023-09-07T10:11:33;6.13;;;3.60;;
64816;SDS011;69411;45.656;11.740;2023-09-07T10:14:02;6.68;;;3.55;;
64816;SDS011;69411;45.656;11.740;2023-09-07T10:16:46;3.97;;;3.33;;
64816;SDS011;69411;45.656;11.740;2023-09-07T10:19:21;6.05;;;3.30;;
64816;SDS011;69411;45.656;11.740;2023-09-07T10:21:48;5.97;;;3.72;;
64816;SDS011;69411;45.656;11.740;2023-09-07T10:24:25;7.40;;;3.53;;
64816;SDS011;69411;45.656;11.740;2023-09-07T10:27:00;5.85;;;3.70;;
64816;SDS011;69411;45.656;11.740;2023-09-07T10:29:27;5.10;;;3.53;;
64816;SDS011;69411;45.656;11.740;2023-09-07T10:31:53;4.30;;;3.45;;
64816;SDS011;69411;45.656;11.740;2023-09-07T10:34:19;6.13;;;3.70;;
64816;SDS011;69411;45.656;11.740;2023-09-07T10:36:47;4.95;;;3.78;;
64816;SDS011;69411;45.656;11.740;2023-09-07T10:39:16;6.47;;;3.90;;
64816;SDS011;69411;45.656;11.740;2023-09-07T10:41:43;6.03;;;3.90;;
64816;SDS011;69411;45.656;11.740;2023-09-07T10:44:10;9.23;;;3.70;;
64816;SDS011;69411;45.656;11.740;2023-09-07T10:46:37;7.43;;;3.80;;
64816;SDS011;69411;45.656;11.740;2023-09-07T10:49:05;6.38;;;3.85;;
64816;SDS011;69411;45.656;11.740;2023-09-07T10:51:41;7.20;;;3.97;;
64816;SDS011;69411;45.656;11.740;2023-09-07T10:54:15;5.57;;;4.10;;
64816;SDS011;69411;45.656;11.740;2023-09-07T10:56:43;5.90;;;3.38;;
64816;SDS011;69411;45.656;11.740;2023-09-07T10:59:11;6.50;;;3.70;;
64816;SDS011;69411;45.656;11.740;2023-09-07T11:01:41;8.77;;;3.70;;
64816;SDS011;69411;45.656;11.740;2023-09-07T11:04:11;5.60;;;3.97;;
64816;SDS011;69411;45.656;11.740;2023-09-07T11:06:40;5.88;;;3.67;;
64816;SDS011;69411;45.656;11.740;2023-09-07T11:09:08;7.82;;;3.67;;
64816;SDS011;69411;45.656;11.740;2023-09-07T11:11:37;5.85;;;4.10;;
64816;SDS011;69411;45.656;11.740;2023-09-07T11:14:04;5.68;;;3.90;;
64816;SDS011;69411;45.656;11.740;2023-09-07T11:16:31;5.63;;;3.97;;
64816;SDS011;69411;45.656;11.740;2023-09-07T11:19:02;6.53;;;3.47;;
64816;SDS011;69411;45.656;11.740;2023-09-07T11:21:30;4.35;;;3.45;;
64816;SDS011;69411;45.656;11.740;2023-09-07T11:23:58;6.07;;;3.90;;
64816;SDS011;69411;45.656;11.740;2023-09-07T11:26:24;4.70;;;3.92;;
64816;SDS011;69411;45.656;11.740;2023-09-07T11:28:50;3.80;;;3.40;;
64816;SDS011;69411;45.656;11.740;2023-09-07T11:31:18;4.82;;;3.72;;
64816;SDS011;69411;45.656;11.740;2023-09-07T11:33:46;9.20;;;3.72;;
64816;SDS011;69411;45.656;11.740;2023-09-07T11:36:14;7.47;;;3.70;;
64816;SDS011;69411;45.656;11.740;2023-09-07T11:38:42;4.80;;;3.30;;
64816;SDS011;69411;45.656;11.740;2023-09-07T11:41:10;5.90;;;3.50;;
64816;SDS011;69411;45.656;11.740;2023-09-07T11:43:36;5.65;;;3.50;;
64816;SDS011;69411;45.656;11.740;2023-09-07T11:46:04;4.68;;;3.70;;
64816;SDS011;69411;45.656;11.740;2023-09-07T11:48:30;7.22;;;3.80;;
64816;SDS011;69411;45.656;11.740;2023-09-07T11:50:57;6.18;;;4.30;;
64816;SDS011;69411;45.656;11.740;2023-09-07T11:53:24;8.13;;;4.35;;
64816;SDS011;69411;45.656;11.740;2023-09-07T11:55:50;7.40;;;3.88;;
64816;SDS011;69411;45.656;11.740;2023-09-07T11:58:16;5.75;;;3.58;;
64816;SDS011;69411;45.656;11.740;2023-09-07T12:00:42;4.85;;;3.72;;
64816;SDS011;69411;45.656;11.740;2023-09-07T12:03:08;5.32;;;4.00;;
64816;SDS011;69411;45.656;11.740;2023-09-07T12:05:35;5.07;;;3.40;;
64816;SDS011;69411;45.656;11.740;2023-09-07T12:08:03;5.78;;;3.78;;
64816;SDS011;69411;45.656;11.740;2023-09-07T12:10:29;5.70;;;3.70;;
64816;SDS011;69411;45.656;11.740;2023-09-07T12:12:55;4.60;;;3.30;;
64816;SDS011;69411;45.656;11.740;2023-09-07T12:15:21;3.95;;;3.40;;
64816;SDS011;69411;45.656;11.740;2023-09-07T12:17:48;3.90;;;3.50;;
64816;SDS011;69411;45.656;11.740;2023-09-07T12:20:19;8.85;;;3.75;;
64816;SDS011;69411;45.656;11.740;2023-09-07T12:22:46;8.50;;;3.80;;
64816;SDS011;69411;45.656;11.740;2023-09-07T12:25:14;6.78;;;3.83;;
64816;SDS011;69411;45.656;11.740;2023-09-07T12:27:40;4.97;;;3.33;;
64816;SDS011;69411;45.656;11.740;2023-09-07T12:30:09;4.57;;;3.72;;
64816;SDS011;69411;45.656;11.740;2023-09-07T12:32:38;5.57;;;3.83;;
64816;SDS011;69411;45.656;11.740;2023-09-07T12:35:05;5.93;;;3.80;;
64816;SDS011;69411;45.656;11.740;2023-09-07T12:37:34;6.32;;;3.60;;
64816;SDS011;69411;45.656;11.740;2023-09-07T12:40:01;4.80;;;3.28;;
64816;SDS011;69411;45.656;11.740;2023-09-07T12:42:37;5.28;;;4.03;;
64816;SDS011;69411;45.656;11.740;2023-09-07T12:45:07;6.32;;;3.47;;
64816;SDS011;69411;45.656;11.740;2023-09-07T12:47:37;4.55;;;3.25;;
64816;SDS011;69411;45.656;11.740;2023-09-07T12:50:04;4.30;;;3.58;;
64816;SDS011;69411;45.656;11.740;2023-09-07T12:52:31;6.00;;;3.88;;
64816;SDS011;69411;45.656;11.740;2023-09-07T12:54:57;4.45;;;3.15;;
64816;SDS011;69411;45.656;11.740;2023-09-07T12:57:23;6.72;;;4.15;;
64816;SDS011;69411;45.656;11.740;2023-09-07T12:59:49;4.28;;;3.70;;
64816;SDS011;69411;45.656;11.740;2023-09-07T13:02:15;4.38;;;3.30;;
64816;SDS011;69411;45.656;11.740;2023-09-07T13:04:42;5.07;;;3.60;;
64816;SDS011;69411;45.656;11.740;2023-09-07T13:07:08;6.00;;;3.67;;
64816;SDS011;69411;45.656;11.740;2023-09-07T13:09:34;6.97;;;3.65;;
64816;SDS011;69411;45.656;11.740;2023-09-07T13:12:00;6.05;;;3.80;;
64816;SDS011;69411;45.656;11.740;2023-09-07T13:14:25;6.03;;;3.80;;
64816;SDS011;69411;45.656;11.740;2023-09-07T13:16:51;6.70;;;3.58;;
64816;SDS011;69411;45.656;11.740;2023-09-07T13:19:19;6.53;;;3.90;;
64816;SDS011;69411;45.656;11.740;2023-09-07T13:21:45;5.93;;;3.70;;
64816;SDS011;69411;45.656;11.740;2023-09-07T13:24:11;6.65;;;3.72;;
64816;SDS011;69411;45.656;11.740;2023-09-07T13:26:39;4.10;;;3.60;;
64816;SDS011;69411;45.656;11.740;2023-09-07T13:29:06;6.95;;;3.30;;
64816;SDS011;69411;45.656;11.740;2023-09-07T13:31:33;5.65;;;3.65;;
64816;SDS011;69411;45.656;11.740;2023-09-07T13:33:59;7.43;;;3.30;;
64816;SDS011;69411;45.656;11.740;2023-09-07T13:36:24;4.43;;;3.00;;
64816;SDS011;69411;45.656;11.740;2023-09-07T13:38:57;10.00;;;4.18;;
64816;SDS011;69411;45.656;11.740;2023-09-07T13:41:24;6.80;;;3.63;;
64816;SDS011;69411;45.656;11.740;2023-09-07T13:43:50;12.50;;;4.30;;
64816;SDS011;69411;45.656;11.740;2023-09-07T13:46:20;10.20;;;3.45;;
64816;SDS011;69411;45.656;11.740;2023-09-07T13:48:46;5.00;;;3.60;;
64816;SDS011;69411;45.656;11.740;2023-09-07T13:51:13;6.25;;;3.65;;
64816;SDS011;69411;45.656;11.740;2023-09-07T13:53:40;5.20;;;3.90;;
64816;SDS011;69411;45.656;11.740;2023-09-07T13:56:06;5.25;;;3.28;;
64816;SDS011;69411;45.656;11.740;2023-09-07T13:58:33;5.43;;;3.63;;
64816;SDS011;69411;45.656;11.740;2023-09-07T14:01:00;6.15;;;3.60;;
64816;SDS011;69411;45.656;11.740;2023-09-07T14:03:27;4.22;;;3.40;;
64816;SDS011;69411;45.656;11.740;2023-09-07T14:05:53;6.95;;;4.50;;
64816;SDS011;69411;45.656;11.740;2023-09-07T14:08:19;6.32;;;4.10;;
64816;SDS011;69411;45.656;11.740;2023-09-07T14:10:49;6.53;;;3.80;;
64816;SDS011;69411;45.656;11.740;2023-09-07T14:13:22;5.22;;;4.10;;
64816;SDS011;69411;45.656;11.740;2023-09-07T14:15:48;5.90;;;3.90;;
64816;SDS011;69411;45.656;11.740;2023-09-07T14:18:14;7.00;;;4.28;;
64816;SDS011;69411;45.656;11.740;2023-09-07T14:20:40;5.70;;;3.95;;
64816;SDS011;69411;45.656;11.740;2023-09-07T14:23:06;5.38;;;4.07;;
64816;SDS011;69411;45.656;11.740;2023-09-07T14:25:32;5.18;;;3.88;;
64816;SDS011;69411;45.656;11.740;2023-09-07T14:27:58;6.32;;;3.90;;
64816;SDS011;69411;45.656;11.740;2023-09-07T14:30:25;7.95;;;4.15;;
64816;SDS011;69411;45.656;11.740;2023-09-07T14:32:51;5.57;;;3.80;;
64816;SDS011;69411;45.656;11.740;2023-09-07T14:35:17;5.75;;;4.00;;
64816;SDS011;69411;45.656;11.740;2023-09-07T14:37:43;5.43;;;3.90;;
64816;SDS011;69411;45.656;11.740;2023-09-07T14:40:09;4.88;;;3.85;;